Terminal Aerodrome Forecast
Issued by NWS Grand Forks, ND

Home | Current Version | Previous Version | Graphics & Text | Print | Product List | Glossary On
Versions: 1 2 3 4 5 6 7 8 9 10 11 12 13 14 15 16 17
561
FTUS43 KFGF 220520
TAFGFK
TAF
KGFK 220520Z 2206/2306 32007KT P6SM OVC050
     FM221500 33013KT P6SM OVC030
     FM230000 35014KT P6SM OVC035
     FM230200 35011KT P6SM OVC025=

USA.gov is the U.S. government's official web portal to all federal, state and local government web resources and services.